Winter Haven, FL

10:05 PM EDT on August 28, 2014 (GMT -0400)
Sheffield Road | Change Station
CLOSE
Current Station
Personal Weather Station
Location: Winter Haven, FL
Elevation: 138 ft
Nearby Weather Stations

Elev 138 ft 27.97 °N, 81.79 °W | Updated 5 minutes ago

Partly Cloudy
Partly Cloudy
82.4 °F
Feels Like 90 °F
N
5.0
Wind Variable Wind from ESE
Gusts 11.0 mph

Today
High -- | Low -- °F
--% Chance of Precip.
Yesterday
High -- | Low -- °F
Precip. -- in
7:03 AM 7:52 PM
Waxing Crescent, 11% visible
Pressure 30.02 in
Visibility 10.0 miles
Clouds Few 8000 ft
Heat Index 90 °F
Dew Point 75 °F
Humidity 80%
Rainfall 0.00 in
Snow Depth Not available.
UV 0 out of 12
Pollen 7.70 out of 12
PM2.5 Good
Flu Activity Not available.
METAR KBOW 290155Z AUTO 12008KT 10SM FEW080 27/23 A3002 RMK AO2 LTG DSNT SE

More Conditions Fewer Conditions

Pressure 30.02 in
Visibility 10.0 miles
Clouds Few 8000 ft
Heat Index 90 °F
Dew Point 75 °F
Humidity 80%
Rainfall 0.00 in
Snow Depth Not available.
UV 0 out of 12
Pollen 7.70 out of 12
PM2.5 Good
Flu Activity Not available.
METAR KBOW 290155Z AUTO 12008KT 10SM FEW080 27/23 A3002 RMK AO2 LTG DSNT SE

More Conditions Fewer Conditions

10-Day Weather Forecast

Almanac

Astronomy

Aug. 28, 2014 Rise Set
Actual Time 7:03 AM EDT 7:52 PM EDT
Civil Twilight 6:39 AM EDT 8:16 PM EDT
Nautical Twilight 6:11 AM EDT 8:44 PM EDT
Astronomical Twilight 5:42 AM EDT 9:13 PM EDT
Moon 9:36 AM EDT (8/28) 9:35 PM EDT (8/28)
Length of Visible Light 13h 36m
Length of Day
12h 48m
Tomorrow will be 1m 34s shorter.
Waxing Crescent, 11% of the Moon is Illuminated
Today
Waxing Crescent
Sep 2
First Quarter
Sep 8
Full
Sep 15
Last Quarter
Sep 24
New

Today's Extremes

State Highs State Lows

Community

WunderPhotos

Upload Photos

1,748,124 photos uploaded!

Nearby

Air Quality

  Air Quality AQ Index Pollutant
Yesterday Good
OZONE
Yesterday Good
PM10
Current Good
PM2.5
Thursday Good
PM2.5
Thursday Good
OZONE
Friday Good
PM2.5
Friday Good
OZONE

Snow Depth

Station Depth Elevation
No new snow has been reported.

Earthquake Activity

City Distance Mag. Time & Date
No recent earthquake activity has been reported nearby.
Minimum magnitude displayed is 2.5.

Coastal Water Temperatures

Place Temperature
No Stations Reporting

Nearby Weather Stations